createdAt,value
2018-07-17T00:00:13.796Z,20.41
2018-07-17T00:02:42.065Z,20.35
2018-07-17T00:05:11.753Z,20.31
2018-07-17T00:07:40.023Z,20.28
2018-07-17T00:10:08.528Z,20.27
2018-07-17T00:12:36.957Z,20.25
2018-07-17T00:15:05.198Z,20.33
2018-07-17T00:17:34.500Z,20.38
2018-07-17T00:20:02.701Z,20.42
2018-07-17T00:22:31.116Z,20.32
2018-07-17T00:24:59.680Z,20.28
2018-07-17T00:27:27.959Z,20.34
2018-07-17T00:29:56.727Z,20.39
2018-07-17T00:32:25.528Z,20.37
2018-07-17T00:34:53.805Z,20.33
2018-07-17T00:37:23.304Z,20.30
2018-07-17T00:39:51.495Z,20.12
2018-07-17T00:42:19.798Z,20.12
2018-07-17T00:44:48.388Z,20.11
2018-07-17T00:47:17.185Z,19.99
2018-07-17T00:49:45.394Z,19.89
2018-07-17T00:52:13.670Z,19.85
2018-07-17T00:54:42.141Z,19.75
2018-07-17T00:57:10.601Z,19.80
2018-07-17T00:59:39.275Z,19.78
2018-07-17T01:02:13.463Z,19.69
2018-07-17T01:04:47.288Z,19.64
2018-07-17T01:07:21.237Z,19.57
2018-07-17T01:09:55.090Z,19.59
2018-07-17T01:12:23.456Z,19.58
2018-07-17T01:14:57.535Z,19.64
2018-07-17T01:17:26.472Z,19.53
2018-07-17T01:19:54.746Z,19.40
2018-07-17T01:22:23.091Z,19.29
2018-07-17T01:24:51.335Z,19.25
2018-07-17T01:27:20.579Z,19.36
2018-07-17T01:29:49.277Z,19.50
2018-07-17T01:32:18.383Z,19.44
2018-07-17T01:34:46.986Z,19.49
2018-07-17T01:37:16.208Z,19.35
2018-07-17T01:39:44.506Z,19.27
2018-07-17T01:42:13.514Z,19.23
2018-07-17T01:44:41.956Z,19.16
2018-07-17T01:47:10.325Z,19.09
2018-07-17T01:49:40.166Z,18.94
2018-07-17T01:52:08.389Z,18.90
2018-07-17T01:54:36.803Z,18.79
2018-07-17T01:57:05.628Z,18.67
2018-07-17T01:59:34.688Z,18.64
2018-07-17T02:02:04.353Z,18.64
2018-07-17T02:04:32.548Z,18.51
2018-07-17T02:07:00.801Z,18.46
2018-07-17T02:09:29.544Z,18.45
2018-07-17T02:11:57.865Z,18.34
2018-07-17T02:14:26.350Z,18.28
2018-07-17T02:16:54.953Z,18.23
2018-07-17T02:19:23.285Z,18.26
2018-07-17T02:21:51.476Z,18.25
2018-07-17T02:24:19.986Z,18.27
2018-07-17T02:26:48.166Z,18.32
2018-07-17T02:29:16.700Z,18.36
2018-07-17T02:31:44.942Z,18.33
2018-07-17T02:34:13.138Z,18.28
2018-07-17T02:36:41.456Z,18.24
2018-07-17T02:39:09.650Z,18.26
2018-07-17T02:41:37.984Z,18.22
2018-07-17T02:44:06.875Z,18.17
2018-07-17T02:46:35.353Z,18.12
2018-07-17T02:49:03.949Z,18.03
2018-07-17T02:51:32.277Z,17.99
2018-07-17T02:54:00.690Z,17.94
2018-07-17T02:56:28.999Z,17.87
2018-07-17T02:58:57.558Z,17.85
2018-07-17T03:01:26.797Z,17.86
2018-07-17T03:03:55.326Z,17.83
2018-07-17T03:06:23.868Z,17.83
2018-07-17T03:08:52.226Z,17.78
2018-07-17T03:11:20.433Z,17.77
2018-07-17T03:13:48.636Z,17.82
2018-07-17T03:16:17.315Z,17.82
2018-07-17T03:18:45.631Z,17.83
2018-07-17T03:21:14.207Z,17.83
2018-07-17T03:23:42.603Z,17.77
2018-07-17T03:26:11.345Z,17.67
2018-07-17T03:28:39.543Z,17.61
2018-07-17T03:31:08.623Z,17.62
2018-07-17T03:33:36.885Z,17.72
2018-07-17T03:36:05.393Z,17.67
2018-07-17T03:38:33.708Z,17.64
2018-07-17T03:41:01.957Z,17.66
2018-07-17T03:43:30.480Z,17.72
2018-07-17T03:45:58.705Z,17.91
2018-07-17T03:48:27.732Z,17.87
2018-07-17T03:50:55.996Z,17.89
2018-07-17T03:53:25.417Z,17.90
2018-07-17T03:55:55.500Z,17.90
2018-07-17T03:58:24.355Z,17.90
2018-07-17T04:00:53.571Z,17.91
2018-07-17T04:03:21.857Z,17.97
2018-07-17T04:05:50.096Z,17.98
2018-07-17T04:08:18.338Z,17.99
2018-07-17T04:10:47.308Z,18.08
2018-07-17T04:13:15.485Z,18.13
2018-07-17T04:15:44.334Z,18.14
2018-07-17T04:18:13.240Z,18.12
2018-07-17T04:20:41.582Z,18.12
2018-07-17T04:23:10.805Z,18.18
2018-07-17T04:25:39.203Z,18.24
2018-07-17T04:28:07.902Z,18.16
2018-07-17T04:30:36.835Z,18.26
2018-07-17T04:33:05.577Z,18.25
2018-07-17T04:35:34.428Z,18.24
2018-07-17T04:38:02.957Z,18.30
2018-07-17T04:40:31.515Z,18.23
2018-07-17T04:43:00.537Z,18.31
2018-07-17T04:45:28.800Z,18.35
2018-07-17T04:47:57.671Z,18.42
2018-07-17T04:50:25.948Z,18.54
2018-07-17T04:52:55.001Z,18.45
2018-07-17T04:55:23.501Z,18.58
2018-07-17T04:57:52.498Z,18.74
2018-07-17T05:00:20.988Z,19.09
2018-07-17T05:02:49.192Z,19.18
2018-07-17T05:05:17.513Z,19.21
2018-07-17T05:07:46.018Z,19.15
2018-07-17T05:10:15.707Z,19.27
2018-07-17T05:12:44.690Z,19.42
2018-07-17T05:15:13.010Z,19.29
2018-07-17T05:17:41.308Z,19.29
2018-07-17T05:20:10.466Z,19.37
2018-07-17T05:22:38.736Z,19.50
2018-07-17T05:25:07.675Z,19.66
2018-07-17T05:27:36.432Z,19.77
2018-07-17T05:30:05.666Z,19.87
2018-07-17T05:32:34.748Z,20.00
2018-07-17T05:35:03.393Z,20.07
2018-07-17T05:37:31.813Z,20.19
2018-07-17T05:40:00.052Z,20.38
2018-07-17T05:42:30.163Z,20.55
2018-07-17T05:44:58.496Z,20.68
2018-07-17T05:47:27.546Z,20.89
2018-07-17T05:49:55.808Z,20.80
2018-07-17T05:52:25.472Z,20.80
2018-07-17T05:54:53.784Z,21.08
2018-07-17T05:57:22.868Z,21.35
2018-07-17T05:59:51.248Z,21.30
2018-07-17T06:02:19.736Z,21.27
2018-07-17T06:04:48.817Z,21.36
2018-07-17T06:07:17.499Z,21.39
2018-07-17T06:09:45.780Z,21.66
2018-07-17T06:12:14.389Z,21.71
2018-07-17T06:14:42.997Z,21.62
2018-07-17T06:17:11.537Z,21.59
2018-07-17T06:19:40.556Z,21.95
2018-07-17T06:22:09.057Z,21.94
2018-07-17T06:24:37.360Z,22.26
2018-07-17T06:27:06.187Z,22.35
2018-07-17T06:29:34.689Z,22.17
2018-07-17T06:32:04.525Z,22.21
2018-07-17T06:34:32.880Z,22.53
2018-07-17T06:37:02.848Z,22.49
2018-07-17T06:39:31.257Z,22.89
2018-07-17T06:41:59.537Z,22.77
2018-07-17T06:44:28.358Z,22.65
2018-07-17T06:46:57.337Z,23.03
2018-07-17T06:49:26.211Z,23.35
2018-07-17T06:51:55.262Z,23.57
2018-07-17T06:54:23.542Z,23.73
2018-07-17T06:56:51.876Z,23.84
2018-07-17T06:59:20.359Z,24.05
2018-07-17T07:01:49.332Z,24.27
2018-07-17T07:04:18.280Z,24.38
2018-07-17T07:06:46.860Z,24.64
2018-07-17T07:09:15.132Z,24.42
2018-07-17T07:11:43.324Z,24.36
2018-07-17T07:14:11.618Z,24.27
2018-07-17T07:16:40.648Z,24.52
2018-07-17T07:19:09.172Z,24.69
2018-07-17T07:21:37.474Z,24.99
2018-07-17T07:24:05.933Z,24.76
2018-07-17T07:26:35.110Z,25.08
2018-07-17T07:29:03.448Z,25.37
2018-07-17T07:31:31.712Z,25.36
2018-07-17T07:34:00.665Z,25.44
2018-07-17T07:36:29.290Z,25.56
2018-07-17T07:38:57.976Z,25.40
2018-07-17T07:41:26.367Z,25.78
2018-07-17T07:43:55.522Z,25.83
2018-07-17T07:46:25.288Z,25.97
2018-07-17T07:48:54.474Z,26.07
2018-07-17T07:51:23.940Z,25.87
2018-07-17T07:53:52.548Z,26.03
2018-07-17T07:56:20.801Z,26.09
2018-07-17T07:58:49.225Z,26.19
2018-07-17T08:01:17.910Z,26.11
2018-07-17T08:03:49.470Z,26.12
2018-07-17T08:06:18.111Z,26.50
2018-07-17T08:08:46.576Z,26.42
2018-07-17T08:11:15.108Z,26.46
2018-07-17T08:13:43.357Z,26.80
2018-07-17T08:16:11.709Z,27.08
2018-07-17T08:18:40.021Z,27.28
2018-07-17T08:21:09.236Z,27.47
2018-07-17T08:23:37.548Z,27.86
2018-07-17T08:26:06.101Z,27.98
2018-07-17T08:28:34.618Z,27.77
2018-07-17T08:31:03.413Z,27.61
2018-07-17T08:33:31.831Z,27.88
2018-07-17T08:36:01.369Z,28.25
2018-07-17T08:38:30.328Z,28.16
2018-07-17T08:40:59.051Z,28.11
2018-07-17T08:43:27.479Z,28.09
2018-07-17T08:45:57.315Z,28.04
2018-07-17T08:48:25.649Z,27.99
2018-07-17T08:50:53.877Z,28.02
2018-07-17T08:53:22.159Z,28.07
2018-07-17T08:55:50.557Z,28.25
2018-07-17T08:58:19.513Z,28.55
2018-07-17T09:00:49.208Z,28.64
2018-07-17T09:03:17.926Z,28.92
2018-07-17T09:05:46.923Z,28.58
2018-07-17T09:08:15.801Z,28.56
2018-07-17T09:10:44.900Z,28.61
2018-07-17T09:13:13.624Z,29.22
2018-07-17T09:15:42.084Z,29.34
2018-07-17T09:18:10.968Z,29.47
2018-07-17T09:20:39.540Z,29.72
2018-07-17T09:23:08.136Z,29.81
2018-07-17T09:25:37.341Z,29.69
2018-07-17T09:28:06.236Z,29.76
2018-07-17T09:30:40.780Z,29.31
2018-07-17T09:33:09.320Z,29.63
2018-07-17T09:35:37.573Z,29.87
2018-07-17T09:38:07.041Z,29.98
2018-07-17T09:40:35.569Z,29.82
2018-07-17T09:43:04.059Z,30.19
2018-07-17T09:45:32.538Z,30.28
2018-07-17T09:48:01.541Z,30.19
2018-07-17T09:50:30.050Z,30.22
2018-07-17T09:52:59.088Z,30.16
2018-07-17T09:55:27.808Z,30.74
2018-07-17T09:57:56.370Z,30.89
2018-07-17T10:00:31.115Z,30.67
2018-07-17T10:02:59.681Z,30.74
2018-07-17T10:05:29.188Z,30.54
2018-07-17T10:07:57.906Z,31.04
2018-07-17T10:10:26.148Z,31.30
2018-07-17T10:12:54.697Z,30.35
2018-07-17T10:15:22.973Z,30.22
2018-07-17T10:17:52.745Z,30.46
2018-07-17T10:20:21.801Z,30.83
2018-07-17T10:22:50.545Z,31.32
2018-07-17T10:25:19.037Z,31.11
2018-07-17T10:27:47.903Z,31.13
2018-07-17T10:30:16.574Z,31.02
2018-07-17T10:32:45.024Z,31.54
2018-07-17T10:35:13.586Z,31.39
2018-07-17T10:37:41.904Z,31.60
2018-07-17T10:40:10.168Z,31.35
2018-07-17T10:42:38.383Z,31.49
2018-07-17T10:45:07.434Z,31.67
2018-07-17T10:47:35.781Z,31.12
2018-07-17T10:50:04.116Z,30.96
2018-07-17T10:52:32.964Z,31.19
2018-07-17T10:55:01.937Z,31.72
2018-07-17T10:57:30.456Z,30.99
2018-07-17T10:59:58.656Z,30.43
2018-07-17T11:02:27.274Z,30.41
2018-07-17T11:04:58.375Z,30.98
2018-07-17T11:07:27.281Z,31.21
2018-07-17T11:09:55.945Z,31.39
2018-07-17T11:12:24.896Z,31.90
2018-07-17T11:14:53.577Z,32.64
2018-07-17T11:17:23.394Z,32.43
2018-07-17T11:19:51.812Z,32.45
2018-07-17T11:22:20.253Z,32.05
2018-07-17T11:24:49.658Z,31.30
2018-07-17T11:27:18.207Z,30.69
2018-07-17T11:29:46.763Z,30.83
2018-07-17T11:32:15.446Z,31.45
2018-07-17T11:34:44.051Z,31.68
2018-07-17T11:37:12.401Z,32.32
2018-07-17T11:39:40.677Z,31.88
2018-07-17T11:42:09.042Z,30.78
2018-07-17T11:44:37.370Z,30.52
2018-07-17T11:47:05.562Z,30.98
2018-07-17T11:49:34.197Z,31.36
2018-07-17T11:52:02.985Z,31.55
2018-07-17T11:54:31.334Z,31.23
2018-07-17T11:57:00.189Z,31.10
2018-07-17T11:59:28.530Z,31.64
2018-07-17T12:01:56.990Z,32.02
2018-07-17T12:04:25.262Z,32.59
2018-07-17T12:06:54.292Z,32.38
2018-07-17T12:09:23.187Z,32.75
2018-07-17T12:11:51.709Z,32.98
2018-07-17T12:14:20.573Z,33.25
2018-07-17T12:16:49.736Z,32.61
2018-07-17T12:19:18.127Z,33.00
2018-07-17T12:21:46.853Z,33.21
2018-07-17T12:24:15.449Z,33.01
2018-07-17T12:26:43.951Z,32.45
2018-07-17T12:29:12.284Z,32.37
2018-07-17T12:31:40.519Z,33.26
2018-07-17T12:34:10.052Z,33.08
2018-07-17T12:36:38.771Z,33.23
2018-07-17T12:39:09.429Z,33.02
2018-07-17T12:41:37.889Z,33.28
2018-07-17T12:44:06.457Z,32.91
2018-07-17T12:46:34.807Z,32.36
2018-07-17T12:49:03.745Z,32.29
2018-07-17T12:51:32.081Z,32.83
2018-07-17T12:54:00.495Z,32.92
2018-07-17T12:56:28.784Z,33.03
2018-07-17T12:58:57.185Z,32.73
2018-07-17T13:01:25.520Z,33.64
2018-07-17T13:03:54.010Z,33.59
2018-07-17T13:06:22.426Z,33.44
2018-07-17T13:08:50.605Z,32.61
2018-07-17T13:11:18.914Z,31.95
2018-07-17T13:13:47.082Z,32.03
2018-07-17T13:16:15.328Z,31.86
2018-07-17T13:18:43.689Z,32.64
2018-07-17T13:21:11.924Z,33.26
2018-07-17T13:23:40.542Z,33.26
2018-07-17T13:26:08.881Z,33.71
2018-07-17T13:28:37.341Z,35.91
2018-07-17T13:31:05.809Z,35.42
2018-07-17T13:33:34.308Z,33.78
2018-07-17T13:36:02.496Z,33.99
2018-07-17T13:38:30.671Z,34.96
2018-07-17T13:40:59.151Z,35.02
2018-07-17T13:43:27.734Z,32.86
2018-07-17T13:45:55.907Z,30.84
2018-07-17T13:48:24.621Z,30.14
2018-07-17T13:50:52.832Z,29.13
2018-07-17T13:53:21.608Z,28.40
2018-07-17T13:55:50.009Z,28.48
2018-07-17T13:58:18.726Z,30.00
2018-07-17T14:00:47.325Z,30.10
2018-07-17T14:03:15.701Z,30.60
2018-07-17T14:05:44.901Z,33.20
2018-07-17T14:08:13.337Z,33.48
2018-07-17T14:10:42.017Z,31.87
2018-07-17T14:13:10.655Z,30.58
2018-07-17T14:15:39.084Z,29.66
2018-07-17T14:18:07.417Z,29.47
2018-07-17T14:20:36.088Z,28.87
2018-07-17T14:23:04.640Z,28.79
2018-07-17T14:25:32.957Z,28.57
2018-07-17T14:28:01.858Z,28.64
2018-07-17T14:30:30.453Z,29.47
2018-07-17T14:32:58.620Z,30.24
2018-07-17T14:35:26.879Z,30.06
2018-07-17T14:37:55.352Z,31.50
2018-07-17T14:40:23.685Z,30.73
2018-07-17T14:42:53.330Z,30.28
2018-07-17T14:45:22.248Z,30.03
2018-07-17T14:47:50.816Z,30.22
2018-07-17T14:50:21.520Z,32.00
2018-07-17T14:52:49.740Z,32.57
2018-07-17T14:55:18.067Z,32.70
2018-07-17T14:57:46.912Z,32.68
2018-07-17T15:00:15.843Z,32.86
2018-07-17T15:02:44.556Z,35.45
2018-07-17T15:05:12.826Z,35.02
2018-07-17T15:07:41.145Z,33.31
2018-07-17T15:10:11.848Z,32.01
2018-07-17T15:12:40.117Z,31.49
2018-07-17T15:15:08.659Z,31.36
2018-07-17T15:17:38.135Z,31.44
2018-07-17T15:20:06.440Z,31.01
2018-07-17T15:22:35.377Z,31.04
2018-07-17T15:25:03.989Z,31.01
2018-07-17T15:27:32.192Z,30.97
2018-07-17T15:30:00.813Z,31.40
2018-07-17T15:32:29.293Z,32.12
2018-07-17T15:34:58.458Z,33.35
2018-07-17T15:37:27.280Z,34.32
2018-07-17T15:39:55.850Z,36.90
2018-07-17T15:42:24.452Z,39.76
2018-07-17T15:44:52.786Z,40.89
2018-07-17T15:47:21.076Z,40.45
2018-07-17T15:49:49.369Z,41.22
2018-07-17T15:52:17.989Z,40.91
2018-07-17T15:54:46.369Z,42.48
2018-07-17T15:57:15.243Z,41.15
2018-07-17T15:59:44.045Z,41.74
2018-07-17T16:02:12.419Z,41.63
2018-07-17T16:04:41.278Z,40.63
2018-07-17T16:07:09.633Z,40.31
2018-07-17T16:09:38.140Z,41.61
2018-07-17T16:12:06.721Z,41.35
2018-07-17T16:14:35.761Z,41.63
2018-07-17T16:17:04.412Z,42.42
2018-07-17T16:19:33.256Z,42.31
2018-07-17T16:22:02.758Z,43.06
2018-07-17T16:24:31.032Z,42.05
2018-07-17T16:26:59.273Z,44.12
2018-07-17T16:29:27.957Z,42.97
2018-07-17T16:31:56.724Z,43.02
2018-07-17T16:34:25.021Z,42.68
2018-07-17T16:36:53.447Z,42.44
2018-07-17T16:39:21.815Z,42.64
2018-07-17T16:41:50.159Z,41.28
2018-07-17T16:44:18.435Z,39.47
2018-07-17T16:46:46.940Z,38.99
2018-07-17T16:49:16.047Z,40.34
2018-07-17T16:51:45.931Z,39.45
2018-07-17T16:54:14.320Z,40.70
2018-07-17T16:56:43.104Z,38.73
2018-07-17T16:59:12.703Z,38.04
2018-07-17T17:01:42.001Z,39.11
2018-07-17T17:04:10.707Z,39.75
2018-07-17T17:06:39.306Z,39.28
2018-07-17T17:09:11.210Z,38.41
2018-07-17T17:11:39.983Z,37.78
2018-07-17T17:14:09.435Z,38.92
2018-07-17T17:16:37.665Z,39.01
2018-07-17T17:19:06.431Z,38.26
2018-07-17T17:21:35.315Z,37.08
2018-07-17T17:24:04.599Z,36.67
2018-07-17T17:26:33.631Z,36.18
2018-07-17T17:29:01.940Z,35.27
2018-07-17T17:31:30.432Z,35.66
2018-07-17T17:33:58.641Z,35.70
2018-07-17T17:36:27.962Z,35.59
2018-07-17T17:38:56.133Z,35.98
2018-07-17T17:41:24.729Z,35.83
2018-07-17T17:43:53.078Z,34.06
2018-07-17T17:46:21.386Z,33.93
2018-07-17T17:48:49.861Z,34.57
2018-07-17T17:51:18.176Z,34.28
2018-07-17T17:53:46.418Z,34.42
2018-07-17T17:56:14.861Z,34.31
2018-07-17T17:58:43.026Z,34.20
2018-07-17T18:01:11.409Z,33.76
2018-07-17T18:03:39.852Z,32.72
2018-07-17T18:06:08.544Z,31.10
2018-07-17T18:08:36.830Z,30.30
2018-07-17T18:11:05.644Z,29.94
2018-07-17T18:13:34.073Z,29.72
2018-07-17T18:16:02.411Z,29.20
2018-07-17T18:18:30.897Z,28.86
2018-07-17T18:20:59.208Z,28.57
2018-07-17T18:23:27.556Z,28.49
2018-07-17T18:25:56.183Z,28.28
2018-07-17T18:28:24.608Z,28.47
2018-07-17T18:30:52.889Z,28.30
2018-07-17T18:33:21.278Z,28.16
2018-07-17T18:35:49.553Z,27.72
2018-07-17T18:38:18.229Z,27.36
2018-07-17T18:40:46.720Z,27.62
2018-07-17T18:43:15.203Z,27.67
2018-07-17T18:45:43.697Z,27.50
2018-07-17T18:48:12.475Z,27.15
2018-07-17T18:50:41.278Z,26.80
2018-07-17T18:53:10.347Z,26.49
2018-07-17T18:55:39.039Z,26.27
2018-07-17T18:58:08.076Z,26.27
2018-07-17T19:00:37.532Z,25.98
2018-07-17T19:03:06.061Z,25.46
2018-07-17T19:05:34.494Z,25.16
2018-07-17T19:08:03.035Z,24.87
2018-07-17T19:10:31.398Z,24.81
2018-07-17T19:13:00.086Z,24.72
2018-07-17T19:15:28.443Z,24.58
2018-07-17T19:17:57.168Z,24.59
2018-07-17T19:20:25.737Z,24.51
2018-07-17T19:22:54.019Z,24.32
2018-07-17T19:25:22.755Z,24.24
2018-07-17T19:27:51.929Z,24.07
2018-07-17T19:30:20.125Z,23.94
2018-07-17T19:32:48.449Z,23.88
2018-07-17T19:35:17.313Z,23.90
2018-07-17T19:37:45.588Z,23.79
2018-07-17T19:40:14.297Z,23.78
2018-07-17T19:42:42.841Z,23.69
2018-07-17T19:45:11.195Z,23.59
2018-07-17T19:47:40.550Z,23.55
2018-07-17T19:50:08.776Z,23.47
2018-07-17T19:52:37.971Z,23.47
2018-07-17T19:55:06.931Z,23.45
2018-07-17T19:57:35.535Z,23.47
2018-07-17T20:00:05.042Z,23.39
2018-07-17T20:02:33.596Z,23.44
2018-07-17T20:05:01.914Z,23.42
2018-07-17T20:07:30.266Z,23.45
2018-07-17T20:09:58.907Z,23.40
2018-07-17T20:12:27.872Z,23.28
2018-07-17T20:14:56.436Z,23.26
2018-07-17T20:17:24.952Z,23.22
2018-07-17T20:19:53.811Z,23.28
2018-07-17T20:22:22.430Z,23.33
2018-07-17T20:24:50.666Z,23.31
2018-07-17T20:27:22.412Z,23.29
2018-07-17T20:29:51.941Z,23.30
2018-07-17T20:32:20.229Z,23.32
2018-07-17T20:34:48.590Z,23.25
2018-07-17T20:37:16.812Z,23.27
2018-07-17T20:39:45.557Z,23.19
2018-07-17T20:42:13.857Z,23.17
2018-07-17T20:44:43.169Z,23.25
2018-07-17T20:47:12.464Z,23.32
2018-07-17T20:49:41.505Z,23.20
2018-07-17T20:52:10.537Z,23.25
2018-07-17T20:54:38.807Z,23.31
2018-07-17T20:57:07.422Z,23.33
2018-07-17T20:59:36.376Z,23.27
2018-07-17T21:02:05.605Z,23.25
2018-07-17T21:04:35.171Z,23.15
2018-07-17T21:07:03.895Z,23.14
2018-07-17T21:09:32.142Z,23.07
2018-07-17T21:12:00.656Z,22.92
2018-07-17T21:14:28.976Z,22.91
2018-07-17T21:16:57.302Z,22.89
2018-07-17T21:19:25.824Z,22.81
2018-07-17T21:21:54.280Z,22.71
2018-07-17T21:24:24.254Z,22.71
2018-07-17T21:26:52.497Z,22.76
2018-07-17T21:29:21.363Z,22.70
2018-07-17T21:31:49.620Z,22.63
2018-07-17T21:34:17.984Z,22.57
2018-07-17T21:36:46.359Z,22.49
2018-07-17T21:39:14.592Z,22.62
2018-07-17T21:41:45.176Z,22.71
2018-07-17T21:44:17.066Z,22.67
2018-07-17T21:46:48.020Z,22.64
2018-07-17T21:49:18.707Z,22.52
2018-07-17T21:51:50.859Z,22.46
2018-07-17T21:54:19.448Z,22.44
2018-07-17T21:56:47.653Z,22.41
2018-07-17T21:59:15.892Z,22.41
2018-07-17T22:01:44.193Z,22.43
2018-07-17T22:04:12.898Z,22.42
2018-07-17T22:06:41.385Z,22.33
2018-07-17T22:09:11.981Z,22.37
2018-07-17T22:11:41.004Z,22.37
2018-07-17T22:14:09.531Z,22.36
2018-07-17T22:16:38.130Z,22.37
2018-07-17T22:19:06.648Z,22.31
2018-07-17T22:21:34.860Z,22.32
2018-07-17T22:24:03.386Z,22.35
2018-07-17T22:26:31.831Z,22.33
2018-07-17T22:29:00.546Z,22.30
2018-07-17T22:31:29.167Z,22.36
2018-07-17T22:33:57.402Z,22.42
2018-07-17T22:36:26.266Z,22.30
2018-07-17T22:38:55.122Z,22.23
2018-07-17T22:41:23.670Z,22.29
2018-07-17T22:43:51.980Z,22.15
2018-07-17T22:46:20.207Z,22.08
2018-07-17T22:48:48.825Z,22.08
2018-07-17T22:51:17.386Z,22.09
2018-07-17T22:53:45.971Z,22.11
2018-07-17T22:56:14.310Z,22.16
2018-07-17T22:58:42.680Z,22.17
2018-07-17T23:01:11.076Z,22.12
2018-07-17T23:03:39.378Z,21.90
2018-07-17T23:06:08.248Z,21.97
2018-07-17T23:08:36.455Z,21.84
2018-07-17T23:11:05.111Z,21.85
2018-07-17T23:13:33.307Z,21.81
2018-07-17T23:16:01.481Z,21.70
2018-07-17T23:18:30.253Z,21.66
2018-07-17T23:20:58.590Z,21.60
2018-07-17T23:23:27.098Z,21.50
2018-07-17T23:25:55.632Z,21.38
2018-07-17T23:28:23.891Z,21.27
2018-07-17T23:30:52.085Z,21.18
2018-07-17T23:33:20.344Z,21.17
2018-07-17T23:35:48.546Z,21.12
2018-07-17T23:38:17.076Z,21.15
2018-07-17T23:40:45.325Z,21.04
2018-07-17T23:43:14.123Z,20.89
2018-07-17T23:45:42.958Z,20.76
2018-07-17T23:48:11.891Z,20.87
2018-07-17T23:50:40.834Z,20.84
2018-07-17T23:53:09.391Z,20.75
2018-07-17T23:55:39.072Z,20.66
2018-07-17T23:58:07.453Z,20.76
